sensor_id;sensor_type;location;lat;lon;timestamp;temperature;humidity
814;DHT22;389;48.710;9.392;2022-10-16T00:01:28;16.60;99.90
814;DHT22;389;48.710;9.392;2022-10-16T00:04:00;16.60;99.90
814;DHT22;389;48.710;9.392;2022-10-16T00:06:27;16.60;99.90
814;DHT22;389;48.710;9.392;2022-10-16T00:08:56;16.60;99.90
814;DHT22;389;48.710;9.392;2022-10-16T00:11:27;16.60;99.90
814;DHT22;389;48.710;9.392;2022-10-16T00:17:06;16.60;99.90
814;DHT22;389;48.710;9.392;2022-10-16T00:19:40;16.60;99.90
814;DHT22;389;48.710;9.392;2022-10-16T00:22:06;16.70;99.90
814;DHT22;389;48.710;9.392;2022-10-16T00:24:32;16.60;99.90
814;DHT22;389;48.710;9.392;2022-10-16T00:27:00;16.40;99.90
814;DHT22;389;48.710;9.392;2022-10-16T00:29:25;16.50;99.90
814;DHT22;389;48.710;9.392;2022-10-16T00:31:53;16.50;99.90
814;DHT22;389;48.710;9.392;2022-10-16T00:34:29;16.50;99.90
814;DHT22;389;48.710;9.392;2022-10-16T00:36:55;16.30;99.90
814;DHT22;389;48.710;9.392;2022-10-16T00:39:21;16.40;99.90
814;DHT22;389;48.710;9.392;2022-10-16T00:42:03;16.30;99.90
814;DHT22;389;48.710;9.392;2022-10-16T00:44:55;16.20;99.90
814;DHT22;389;48.710;9.392;2022-10-16T00:47:48;16.30;99.90
814;DHT22;389;48.710;9.392;2022-10-16T00:50:31;16.30;99.90
814;DHT22;389;48.710;9.392;2022-10-16T00:53:00;16.20;99.90
814;DHT22;389;48.710;9.392;2022-10-16T00:55:44;16.10;99.90
814;DHT22;389;48.710;9.392;2022-10-16T00:58:12;15.90;99.90
814;DHT22;389;48.710;9.392;2022-10-16T01:00:47;16.00;99.90
814;DHT22;389;48.710;9.392;2022-10-16T01:03:42;16.00;99.90
814;DHT22;389;48.710;9.392;2022-10-16T01:06:31;16.00;99.90
814;DHT22;389;48.710;9.392;2022-10-16T01:15:31;15.70;99.90
814;DHT22;389;48.710;9.392;2022-10-16T01:21:27;15.60;99.90
814;DHT22;389;48.710;9.392;2022-10-16T01:24:08;15.60;99.90
814;DHT22;389;48.710;9.392;2022-10-16T01:30:29;15.40;99.90
814;DHT22;389;48.710;9.392;2022-10-16T01:33:19;15.50;99.90
814;DHT22;389;48.710;9.392;2022-10-16T01:35:50;15.50;99.90
814;DHT22;389;48.710;9.392;2022-10-16T01:41:13;15.40;99.90
814;DHT22;389;48.710;9.392;2022-10-16T01:47:22;15.30;99.90
814;DHT22;389;48.710;9.392;2022-10-16T01:50:02;15.40;99.90
814;DHT22;389;48.710;9.392;2022-10-16T02:06:54;15.20;99.90
814;DHT22;389;48.710;9.392;2022-10-16T02:30:45;15.40;99.90
814;DHT22;389;48.710;9.392;2022-10-16T02:33:14;15.40;99.90
814;DHT22;389;48.710;9.392;2022-10-16T02:35:41;15.50;99.90
814;DHT22;389;48.710;9.392;2022-10-16T02:38:09;15.50;99.90
814;DHT22;389;48.710;9.392;2022-10-16T02:40:35;15.60;99.90
814;DHT22;389;48.710;9.392;2022-10-16T02:43:04;15.60;99.90
814;DHT22;389;48.710;9.392;2022-10-16T02:45:30;15.60;99.90
814;DHT22;389;48.710;9.392;2022-10-16T02:47:55;15.60;99.90
814;DHT22;389;48.710;9.392;2022-10-16T02:50:21;15.60;99.90
814;DHT22;389;48.710;9.392;2022-10-16T02:52:47;15.70;99.90
814;DHT22;389;48.710;9.392;2022-10-16T02:55:13;15.70;99.90
814;DHT22;389;48.710;9.392;2022-10-16T02:57:40;15.70;99.90
814;DHT22;389;48.710;9.392;2022-10-16T03:00:07;15.70;99.90
814;DHT22;389;48.710;9.392;2022-10-16T03:02:33;15.70;99.90
814;DHT22;389;48.710;9.392;2022-10-16T03:04:59;15.80;99.90
814;DHT22;389;48.710;9.392;2022-10-16T03:07:24;15.80;99.90
814;DHT22;389;48.710;9.392;2022-10-16T03:09:50;15.80;99.90
814;DHT22;389;48.710;9.392;2022-10-16T03:12:15;15.80;99.90
814;DHT22;389;48.710;9.392;2022-10-16T03:14:41;15.80;99.90
814;DHT22;389;48.710;9.392;2022-10-16T03:17:11;15.80;99.90
814;DHT22;389;48.710;9.392;2022-10-16T03:19:38;15.80;99.90
814;DHT22;389;48.710;9.392;2022-10-16T03:22:04;15.80;99.90
814;DHT22;389;48.710;9.392;2022-10-16T03:24:29;15.80;99.90
814;DHT22;389;48.710;9.392;2022-10-16T03:26:55;15.80;99.90
814;DHT22;389;48.710;9.392;2022-10-16T03:29:21;15.70;99.90
814;DHT22;389;48.710;9.392;2022-10-16T03:31:46;15.70;99.90
814;DHT22;389;48.710;9.392;2022-10-16T03:34:13;15.70;99.90
814;DHT22;389;48.710;9.392;2022-10-16T03:36:39;15.70;99.90
814;DHT22;389;48.710;9.392;2022-10-16T03:39:04;15.70;99.90
814;DHT22;389;48.710;9.392;2022-10-16T03:41:30;15.60;99.90
814;DHT22;389;48.710;9.392;2022-10-16T03:43:56;15.60;99.90
814;DHT22;389;48.710;9.392;2022-10-16T03:46:21;15.60;99.90
814;DHT22;389;48.710;9.392;2022-10-16T03:48:47;15.70;99.90
814;DHT22;389;48.710;9.392;2022-10-16T03:51:12;15.70;99.90
814;DHT22;389;48.710;9.392;2022-10-16T03:53:38;15.70;99.90
814;DHT22;389;48.710;9.392;2022-10-16T03:56:04;15.60;99.90
814;DHT22;389;48.710;9.392;2022-10-16T03:58:29;15.60;99.90
814;DHT22;389;48.710;9.392;2022-10-16T04:00:55;15.60;99.90
814;DHT22;389;48.710;9.392;2022-10-16T04:03:21;15.60;99.90
814;DHT22;389;48.710;9.392;2022-10-16T04:05:46;15.60;99.90
814;DHT22;389;48.710;9.392;2022-10-16T04:08:12;15.50;99.90
814;DHT22;389;48.710;9.392;2022-10-16T04:10:37;15.50;99.90
814;DHT22;389;48.710;9.392;2022-10-16T04:13:03;15.50;99.90
814;DHT22;389;48.710;9.392;2022-10-16T04:15:29;15.40;99.90
814;DHT22;389;48.710;9.392;2022-10-16T04:17:54;15.40;99.90
814;DHT22;389;48.710;9.392;2022-10-16T04:20:20;15.30;99.90
814;DHT22;389;48.710;9.392;2022-10-16T04:22:46;15.30;99.90
814;DHT22;389;48.710;9.392;2022-10-16T04:25:11;15.30;99.90
814;DHT22;389;48.710;9.392;2022-10-16T04:27:38;15.30;99.90
814;DHT22;389;48.710;9.392;2022-10-16T04:30:04;15.30;99.90
814;DHT22;389;48.710;9.392;2022-10-16T04:32:30;15.20;99.90
814;DHT22;389;48.710;9.392;2022-10-16T04:34:55;15.20;99.90
814;DHT22;389;48.710;9.392;2022-10-16T04:37:25;15.20;99.90
814;DHT22;389;48.710;9.392;2022-10-16T04:39:51;15.20;99.90
814;DHT22;389;48.710;9.392;2022-10-16T04:42:16;15.20;99.90
814;DHT22;389;48.710;9.392;2022-10-16T04:44:42;15.20;99.90
814;DHT22;389;48.710;9.392;2022-10-16T04:47:08;15.20;99.90
814;DHT22;389;48.710;9.392;2022-10-16T04:49:33;15.20;99.90
814;DHT22;389;48.710;9.392;2022-10-16T04:51:59;15.20;99.90
814;DHT22;389;48.710;9.392;2022-10-16T04:54:25;15.20;99.90
814;DHT22;389;48.710;9.392;2022-10-16T04:56:50;15.10;99.90
814;DHT22;389;48.710;9.392;2022-10-16T04:59:18;15.20;99.90
814;DHT22;389;48.710;9.392;2022-10-16T05:01:44;15.10;99.90
814;DHT22;389;48.710;9.392;2022-10-16T05:04:10;15.10;99.90
814;DHT22;389;48.710;9.392;2022-10-16T05:06:35;15.20;99.90
814;DHT22;389;48.710;9.392;2022-10-16T05:09:01;15.10;99.90
814;DHT22;389;48.710;9.392;2022-10-16T05:11:27;15.10;99.90
814;DHT22;389;48.710;9.392;2022-10-16T05:13:53;15.20;99.90
814;DHT22;389;48.710;9.392;2022-10-16T05:16:18;15.20;99.90
814;DHT22;389;48.710;9.392;2022-10-16T05:18:44;15.10;99.90
814;DHT22;389;48.710;9.392;2022-10-16T05:21:09;15.10;99.90
814;DHT22;389;48.710;9.392;2022-10-16T05:23:35;15.20;99.90
814;DHT22;389;48.710;9.392;2022-10-16T05:29:23;15.10;99.90
814;DHT22;389;48.710;9.392;2022-10-16T05:31:52;15.10;99.90
814;DHT22;389;48.710;9.392;2022-10-16T05:34:19;15.10;99.90
814;DHT22;389;48.710;9.392;2022-10-16T05:36:45;15.10;99.90
814;DHT22;389;48.710;9.392;2022-10-16T05:39:11;15.10;99.90
814;DHT22;389;48.710;9.392;2022-10-16T05:41:36;15.10;99.90
814;DHT22;389;48.710;9.392;2022-10-16T05:44:05;15.10;99.90
814;DHT22;389;48.710;9.392;2022-10-16T05:46:32;15.00;99.90
814;DHT22;389;48.710;9.392;2022-10-16T05:48:58;15.10;99.90
814;DHT22;389;48.710;9.392;2022-10-16T05:51:23;15.00;99.90
814;DHT22;389;48.710;9.392;2022-10-16T05:53:49;15.00;99.90
814;DHT22;389;48.710;9.392;2022-10-16T05:56:15;14.90;99.90
814;DHT22;389;48.710;9.392;2022-10-16T05:58:41;14.90;99.90
814;DHT22;389;48.710;9.392;2022-10-16T06:01:13;15.00;99.90
814;DHT22;389;48.710;9.392;2022-10-16T06:03:39;14.90;99.90
814;DHT22;389;48.710;9.392;2022-10-16T06:08:38;14.80;99.90
814;DHT22;389;48.710;9.392;2022-10-16T06:11:06;14.80;99.90
814;DHT22;389;48.710;9.392;2022-10-16T06:13:32;14.80;99.90
814;DHT22;389;48.710;9.392;2022-10-16T06:15:59;14.90;99.90
814;DHT22;389;48.710;9.392;2022-10-16T06:18:25;14.90;99.90
814;DHT22;389;48.710;9.392;2022-10-16T06:20:51;14.90;99.90
814;DHT22;389;48.710;9.392;2022-10-16T06:23:17;14.90;99.90
814;DHT22;389;48.710;9.392;2022-10-16T06:25:43;15.00;99.90
814;DHT22;389;48.710;9.392;2022-10-16T06:28:08;15.00;99.90
814;DHT22;389;48.710;9.392;2022-10-16T06:30:34;15.10;99.90
814;DHT22;389;48.710;9.392;2022-10-16T06:32:59;15.10;99.90
814;DHT22;389;48.710;9.392;2022-10-16T06:35:25;15.20;99.90
814;DHT22;389;48.710;9.392;2022-10-16T06:37:53;15.30;99.90
814;DHT22;389;48.710;9.392;2022-10-16T06:40:18;15.40;99.90
814;DHT22;389;48.710;9.392;2022-10-16T06:42:44;15.40;99.90
814;DHT22;389;48.710;9.392;2022-10-16T06:45:10;15.50;99.90
814;DHT22;389;48.710;9.392;2022-10-16T06:47:36;15.60;99.90
814;DHT22;389;48.710;9.392;2022-10-16T06:50:01;15.60;99.90
814;DHT22;389;48.710;9.392;2022-10-16T06:52:30;15.70;99.90
814;DHT22;389;48.710;9.392;2022-10-16T06:54:55;15.80;99.90
814;DHT22;389;48.710;9.392;2022-10-16T06:57:21;15.90;99.90
814;DHT22;389;48.710;9.392;2022-10-16T06:59:46;16.00;99.90
814;DHT22;389;48.710;9.392;2022-10-16T07:02:12;16.10;99.90
814;DHT22;389;48.710;9.392;2022-10-16T07:04:41;16.20;99.90
814;DHT22;389;48.710;9.392;2022-10-16T07:07:06;16.30;99.90
814;DHT22;389;48.710;9.392;2022-10-16T07:09:32;16.50;99.90
814;DHT22;389;48.710;9.392;2022-10-16T07:11:57;16.60;99.90
814;DHT22;389;48.710;9.392;2022-10-16T07:14:23;16.70;99.90
814;DHT22;389;48.710;9.392;2022-10-16T07:16:48;16.70;99.90
814;DHT22;389;48.710;9.392;2022-10-16T07:19:15;16.80;99.90
814;DHT22;389;48.710;9.392;2022-10-16T07:21:42;16.90;99.90
814;DHT22;389;48.710;9.392;2022-10-16T07:24:14;16.90;99.90
814;DHT22;389;48.710;9.392;2022-10-16T07:26:41;17.00;99.90
814;DHT22;389;48.710;9.392;2022-10-16T07:29:12;17.10;99.90
814;DHT22;389;48.710;9.392;2022-10-16T07:31:39;17.20;99.90
814;DHT22;389;48.710;9.392;2022-10-16T07:34:06;17.30;99.90
814;DHT22;389;48.710;9.392;2022-10-16T07:36:42;17.30;99.90
814;DHT22;389;48.710;9.392;2022-10-16T07:39:07;17.40;99.90
814;DHT22;389;48.710;9.392;2022-10-16T07:41:33;17.50;99.90
814;DHT22;389;48.710;9.392;2022-10-16T07:44:02;17.50;99.90
814;DHT22;389;48.710;9.392;2022-10-16T07:46:29;17.60;99.90
814;DHT22;389;48.710;9.392;2022-10-16T07:48:55;17.60;99.90
814;DHT22;389;48.710;9.392;2022-10-16T07:51:23;17.60;99.90
814;DHT22;389;48.710;9.392;2022-10-16T07:53:48;17.70;99.90
814;DHT22;389;48.710;9.392;2022-10-16T07:56:16;17.80;99.90
814;DHT22;389;48.710;9.392;2022-10-16T07:58:42;17.90;99.90
814;DHT22;389;48.710;9.392;2022-10-16T08:01:15;17.90;99.90
814;DHT22;389;48.710;9.392;2022-10-16T08:03:42;17.90;99.90
814;DHT22;389;48.710;9.392;2022-10-16T08:06:08;18.00;99.90
814;DHT22;389;48.710;9.392;2022-10-16T08:08:34;18.00;99.90
814;DHT22;389;48.710;9.392;2022-10-16T08:11:00;18.10;99.90
814;DHT22;389;48.710;9.392;2022-10-16T08:13:29;18.20;99.90
814;DHT22;389;48.710;9.392;2022-10-16T08:15:55;18.20;99.90
814;DHT22;389;48.710;9.392;2022-10-16T08:18:20;18.30;99.90
814;DHT22;389;48.710;9.392;2022-10-16T08:20:46;18.40;99.90
814;DHT22;389;48.710;9.392;2022-10-16T08:23:12;18.50;99.90
814;DHT22;389;48.710;9.392;2022-10-16T08:25:40;18.60;99.90
814;DHT22;389;48.710;9.392;2022-10-16T08:28:08;18.70;99.90
814;DHT22;389;48.710;9.392;2022-10-16T08:30:34;18.80;99.90
814;DHT22;389;48.710;9.392;2022-10-16T08:33:01;18.90;99.90
814;DHT22;389;48.710;9.392;2022-10-16T08:35:26;19.00;99.90
814;DHT22;389;48.710;9.392;2022-10-16T08:37:52;19.10;99.90
814;DHT22;389;48.710;9.392;2022-10-16T08:40:24;19.00;99.90
814;DHT22;389;48.710;9.392;2022-10-16T08:43:21;19.20;99.90
814;DHT22;389;48.710;9.392;2022-10-16T08:48:48;19.50;99.90
814;DHT22;389;48.710;9.392;2022-10-16T08:51:35;19.50;99.90
814;DHT22;389;48.710;9.392;2022-10-16T08:54:06;19.70;99.90
814;DHT22;389;48.710;9.392;2022-10-16T08:56:32;19.80;99.90
814;DHT22;389;48.710;9.392;2022-10-16T08:58:59;19.90;99.90
814;DHT22;389;48.710;9.392;2022-10-16T09:01:43;19.90;99.90
814;DHT22;389;48.710;9.392;2022-10-16T09:13:21;20.10;99.90
814;DHT22;389;48.710;9.392;2022-10-16T09:15:44;20.20;99.90
814;DHT22;389;48.710;9.392;2022-10-16T09:18:29;20.30;99.90
814;DHT22;389;48.710;9.392;2022-10-16T09:21:01;20.40;99.90
814;DHT22;389;48.710;9.392;2022-10-16T09:23:35;20.60;99.90
814;DHT22;389;48.710;9.392;2022-10-16T09:26:02;20.80;99.90
814;DHT22;389;48.710;9.392;2022-10-16T09:28:28;20.90;99.40
814;DHT22;389;48.710;9.392;2022-10-16T09:30:54;21.00;99.30
814;DHT22;389;48.710;9.392;2022-10-16T09:33:25;21.00;98.40
814;DHT22;389;48.710;9.392;2022-10-16T09:35:55;21.10;98.20
814;DHT22;389;48.710;9.392;2022-10-16T09:38:33;21.10;97.90
814;DHT22;389;48.710;9.392;2022-10-16T09:41:02;21.10;97.80
814;DHT22;389;48.710;9.392;2022-10-16T09:43:40;21.30;97.80
814;DHT22;389;48.710;9.392;2022-10-16T09:46:21;21.40;97.60
814;DHT22;389;48.710;9.392;2022-10-16T09:48:49;21.50;97.50
814;DHT22;389;48.710;9.392;2022-10-16T09:51:27;21.60;97.60
814;DHT22;389;48.710;9.392;2022-10-16T09:54:21;21.70;96.80
814;DHT22;389;48.710;9.392;2022-10-16T09:56:46;21.80;96.80
814;DHT22;389;48.710;9.392;2022-10-16T09:59:21;21.90;96.30
814;DHT22;389;48.710;9.392;2022-10-16T10:01:53;21.90;96.30
814;DHT22;389;48.710;9.392;2022-10-16T10:04:24;22.00;96.40
814;DHT22;389;48.710;9.392;2022-10-16T10:06:55;22.00;96.50
814;DHT22;389;48.710;9.392;2022-10-16T10:09:37;22.00;96.60
814;DHT22;389;48.710;9.392;2022-10-16T10:12:05;21.90;96.70
814;DHT22;389;48.710;9.392;2022-10-16T10:14:35;21.80;96.60
814;DHT22;389;48.710;9.392;2022-10-16T10:19:41;21.80;97.10
814;DHT22;389;48.710;9.392;2022-10-16T10:33:44;22.30;95.90
814;DHT22;389;48.710;9.392;2022-10-16T10:39:21;22.40;95.90
814;DHT22;389;48.710;9.392;2022-10-16T10:42:23;22.50;95.70
814;DHT22;389;48.710;9.392;2022-10-16T10:45:17;22.50;95.50
814;DHT22;389;48.710;9.392;2022-10-16T10:47:59;22.60;95.50
814;DHT22;389;48.710;9.392;2022-10-16T10:50:39;22.70;95.10
814;DHT22;389;48.710;9.392;2022-10-16T11:00:28;22.70;94.40
814;DHT22;389;48.710;9.392;2022-10-16T11:02:46;22.80;94.30
814;DHT22;389;48.710;9.392;2022-10-16T11:05:33;22.80;94.60
814;DHT22;389;48.710;9.392;2022-10-16T11:08:23;22.90;94.90
814;DHT22;389;48.710;9.392;2022-10-16T11:10:54;22.80;94.00
814;DHT22;389;48.710;9.392;2022-10-16T11:13:35;22.90;94.20
814;DHT22;389;48.710;9.392;2022-10-16T11:16:17;23.00;94.40
814;DHT22;389;48.710;9.392;2022-10-16T11:18:52;23.00;93.90
814;DHT22;389;48.710;9.392;2022-10-16T11:21:21;23.10;94.20
814;DHT22;389;48.710;9.392;2022-10-16T11:26:20;23.20;94.10
814;DHT22;389;48.710;9.392;2022-10-16T11:28:52;23.30;93.50
814;DHT22;389;48.710;9.392;2022-10-16T11:31:41;23.30;93.40
814;DHT22;389;48.710;9.392;2022-10-16T11:34:28;23.30;93.40
814;DHT22;389;48.710;9.392;2022-10-16T11:37:10;23.40;93.30
814;DHT22;389;48.710;9.392;2022-10-16T11:39:38;23.40;92.90
814;DHT22;389;48.710;9.392;2022-10-16T11:42:20;23.60;93.00
814;DHT22;389;48.710;9.392;2022-10-16T11:45:13;23.80;92.40
814;DHT22;389;48.710;9.392;2022-10-16T11:47:54;24.00;91.20
814;DHT22;389;48.710;9.392;2022-10-16T11:50:43;24.30;90.80
814;DHT22;389;48.710;9.392;2022-10-16T11:55:50;24.60;88.60
814;DHT22;389;48.710;9.392;2022-10-16T11:58:20;24.70;88.10
814;DHT22;389;48.710;9.392;2022-10-16T12:03:25;24.90;89.80
814;DHT22;389;48.710;9.392;2022-10-16T12:09:03;25.10;89.40
814;DHT22;389;48.710;9.392;2022-10-16T12:14:32;25.20;88.40
814;DHT22;389;48.710;9.392;2022-10-16T12:17:26;25.30;87.50
814;DHT22;389;48.710;9.392;2022-10-16T12:20:01;25.30;87.50
814;DHT22;389;48.710;9.392;2022-10-16T12:22:31;25.40;86.10
814;DHT22;389;48.710;9.392;2022-10-16T12:24:57;25.40;86.10
814;DHT22;389;48.710;9.392;2022-10-16T12:27:31;25.50;85.60
814;DHT22;389;48.710;9.392;2022-10-16T12:29:59;25.50;86.00
814;DHT22;389;48.710;9.392;2022-10-16T12:32:34;25.50;87.00
814;DHT22;389;48.710;9.392;2022-10-16T12:35:01;25.50;87.30
814;DHT22;389;48.710;9.392;2022-10-16T12:37:30;25.40;86.20
814;DHT22;389;48.710;9.392;2022-10-16T12:39:59;25.40;85.50
814;DHT22;389;48.710;9.392;2022-10-16T12:44:55;25.50;84.60
814;DHT22;389;48.710;9.392;2022-10-16T12:49:53;25.60;84.60
814;DHT22;389;48.710;9.392;2022-10-16T12:54:57;25.60;83.90
814;DHT22;389;48.710;9.392;2022-10-16T13:21:37;26.00;81.80
814;DHT22;389;48.710;9.392;2022-10-16T13:29:32;26.20;79.30
814;DHT22;389;48.710;9.392;2022-10-16T13:32:00;26.40;79.70
814;DHT22;389;48.710;9.392;2022-10-16T13:34:27;26.40;78.60
814;DHT22;389;48.710;9.392;2022-10-16T13:36:53;26.50;78.40
814;DHT22;389;48.710;9.392;2022-10-16T13:39:27;26.60;78.40
814;DHT22;389;48.710;9.392;2022-10-16T13:42:09;26.60;78.70
814;DHT22;389;48.710;9.392;2022-10-16T13:44:49;26.60;78.50
814;DHT22;389;48.710;9.392;2022-10-16T13:47:19;26.60;78.70
814;DHT22;389;48.710;9.392;2022-10-16T13:49:46;26.50;79.40
814;DHT22;389;48.710;9.392;2022-10-16T13:52:20;26.50;79.00
814;DHT22;389;48.710;9.392;2022-10-16T13:54:46;26.50;79.00
814;DHT22;389;48.710;9.392;2022-10-16T13:57:16;26.50;78.40
814;DHT22;389;48.710;9.392;2022-10-16T13:59:42;26.40;77.60
814;DHT22;389;48.710;9.392;2022-10-16T14:02:28;26.40;77.50
814;DHT22;389;48.710;9.392;2022-10-16T14:04:56;26.40;77.10
814;DHT22;389;48.710;9.392;2022-10-16T14:07:28;26.30;76.50
814;DHT22;389;48.710;9.392;2022-10-16T14:09:55;26.20;76.30
814;DHT22;389;48.710;9.392;2022-10-16T14:12:22;26.20;78.30
814;DHT22;389;48.710;9.392;2022-10-16T14:14:53;26.10;78.40
814;DHT22;389;48.710;9.392;2022-10-16T14:17:23;26.00;79.10
814;DHT22;389;48.710;9.392;2022-10-16T14:19:52;25.90;78.20
814;DHT22;389;48.710;9.392;2022-10-16T14:28:42;25.60;81.90
814;DHT22;389;48.710;9.392;2022-10-16T14:31:26;25.50;82.00
814;DHT22;389;48.710;9.392;2022-10-16T14:33:52;25.50;82.40
814;DHT22;389;48.710;9.392;2022-10-16T14:36:18;25.40;82.80
814;DHT22;389;48.710;9.392;2022-10-16T14:39:14;25.40;83.20
814;DHT22;389;48.710;9.392;2022-10-16T14:41:46;25.40;84.30
814;DHT22;389;48.710;9.392;2022-10-16T14:44:12;25.50;84.90
814;DHT22;389;48.710;9.392;2022-10-16T14:46:40;25.50;84.60
814;DHT22;389;48.710;9.392;2022-10-16T14:51:39;25.50;84.50
814;DHT22;389;48.710;9.392;2022-10-16T14:54:08;25.60;83.90
814;DHT22;389;48.710;9.392;2022-10-16T14:59:58;25.50;84.30
814;DHT22;389;48.710;9.392;2022-10-16T15:01:59;25.50;84.50
814;DHT22;389;48.710;9.392;2022-10-16T15:04:24;25.40;85.50
814;DHT22;389;48.710;9.392;2022-10-16T15:06:50;25.40;86.20
814;DHT22;389;48.710;9.392;2022-10-16T15:09:15;25.30;86.50
814;DHT22;389;48.710;9.392;2022-10-16T15:11:42;25.30;86.80
814;DHT22;389;48.710;9.392;2022-10-16T15:14:13;25.30;87.20
814;DHT22;389;48.710;9.392;2022-10-16T15:16:39;25.20;87.50
814;DHT22;389;48.710;9.392;2022-10-16T15:19:05;25.10;87.40
814;DHT22;389;48.710;9.392;2022-10-16T15:21:32;25.00;87.80
814;DHT22;389;48.710;9.392;2022-10-16T15:23:58;24.90;88.00
814;DHT22;389;48.710;9.392;2022-10-16T15:26:25;24.80;88.70
814;DHT22;389;48.710;9.392;2022-10-16T15:28:51;24.80;88.80
814;DHT22;389;48.710;9.392;2022-10-16T15:31:17;24.70;89.00
814;DHT22;389;48.710;9.392;2022-10-16T15:33:42;24.60;89.30
814;DHT22;389;48.710;9.392;2022-10-16T15:36:09;24.50;90.10
814;DHT22;389;48.710;9.392;2022-10-16T15:38:35;24.40;90.30
814;DHT22;389;48.710;9.392;2022-10-16T15:41:01;24.30;90.50
814;DHT22;389;48.710;9.392;2022-10-16T15:43:27;24.20;90.70
814;DHT22;389;48.710;9.392;2022-10-16T15:46:06;24.10;90.80
814;DHT22;389;48.710;9.392;2022-10-16T15:48:32;24.00;90.80
814;DHT22;389;48.710;9.392;2022-10-16T15:50:59;23.90;90.90
814;DHT22;389;48.710;9.392;2022-10-16T15:53:25;23.80;91.00
814;DHT22;389;48.710;9.392;2022-10-16T15:55:50;23.70;91.20
814;DHT22;389;48.710;9.392;2022-10-16T15:58:17;23.60;91.30
814;DHT22;389;48.710;9.392;2022-10-16T16:00:44;23.50;91.50
814;DHT22;389;48.710;9.392;2022-10-16T16:17:36;22.70;92.90
814;DHT22;389;48.710;9.392;2022-10-16T16:20:03;22.60;93.50
814;DHT22;389;48.710;9.392;2022-10-16T16:25:26;22.40;93.60
814;DHT22;389;48.710;9.392;2022-10-16T16:27:52;22.20;93.90
814;DHT22;389;48.710;9.392;2022-10-16T16:30:17;22.10;94.00
814;DHT22;389;48.710;9.392;2022-10-16T16:32:47;22.00;94.30
814;DHT22;389;48.710;9.392;2022-10-16T16:35:13;21.80;94.50
814;DHT22;389;48.710;9.392;2022-10-16T16:37:39;21.70;94.70
814;DHT22;389;48.710;9.392;2022-10-16T16:40:09;21.60;94.80
814;DHT22;389;48.710;9.392;2022-10-16T16:42:34;21.60;95.10
814;DHT22;389;48.710;9.392;2022-10-16T16:45:00;21.40;95.50
814;DHT22;389;48.710;9.392;2022-10-16T16:47:26;21.30;96.10
814;DHT22;389;48.710;9.392;2022-10-16T16:49:51;21.20;96.30
814;DHT22;389;48.710;9.392;2022-10-16T16:52:20;21.10;96.70
814;DHT22;389;48.710;9.392;2022-10-16T16:54:47;20.90;97.10
814;DHT22;389;48.710;9.392;2022-10-16T16:59:44;20.70;98.10
814;DHT22;389;48.710;9.392;2022-10-16T17:02:14;20.70;98.20
814;DHT22;389;48.710;9.392;2022-10-16T17:04:41;20.60;98.30
814;DHT22;389;48.710;9.392;2022-10-16T17:07:25;20.60;98.70
814;DHT22;389;48.710;9.392;2022-10-16T17:10:08;20.50;98.80
814;DHT22;389;48.710;9.392;2022-10-16T17:12:34;20.50;98.90
814;DHT22;389;48.710;9.392;2022-10-16T17:15:00;20.30;98.90
814;DHT22;389;48.710;9.392;2022-10-16T17:17:28;20.30;99.20
814;DHT22;389;48.710;9.392;2022-10-16T17:19:54;20.20;99.40
814;DHT22;389;48.710;9.392;2022-10-16T17:22:20;20.20;99.50
814;DHT22;389;48.710;9.392;2022-10-16T17:24:49;20.20;99.50
814;DHT22;389;48.710;9.392;2022-10-16T17:27:17;20.00;99.50
814;DHT22;389;48.710;9.392;2022-10-16T17:29:43;20.10;99.60
814;DHT22;389;48.710;9.392;2022-10-16T17:32:09;20.00;99.70
814;DHT22;389;48.710;9.392;2022-10-16T17:34:35;19.90;99.80
814;DHT22;389;48.710;9.392;2022-10-16T17:37:01;19.80;99.90
814;DHT22;389;48.710;9.392;2022-10-16T17:39:27;19.80;99.90
814;DHT22;389;48.710;9.392;2022-10-16T17:41:53;19.70;99.90
814;DHT22;389;48.710;9.392;2022-10-16T17:44:22;19.60;99.90
814;DHT22;389;48.710;9.392;2022-10-16T17:46:50;19.60;99.90
814;DHT22;389;48.710;9.392;2022-10-16T17:49:16;19.50;99.90
814;DHT22;389;48.710;9.392;2022-10-16T17:51:43;19.50;99.90
814;DHT22;389;48.710;9.392;2022-10-16T17:54:10;19.40;99.90
814;DHT22;389;48.710;9.392;2022-10-16T17:56:39;19.40;99.90
814;DHT22;389;48.710;9.392;2022-10-16T17:59:05;19.30;99.90
814;DHT22;389;48.710;9.392;2022-10-16T18:01:34;19.30;99.90
814;DHT22;389;48.710;9.392;2022-10-16T18:06:28;19.20;99.90
814;DHT22;389;48.710;9.392;2022-10-16T18:08:56;19.10;99.90
814;DHT22;389;48.710;9.392;2022-10-16T18:11:22;19.00;99.90
814;DHT22;389;48.710;9.392;2022-10-16T18:13:51;18.80;99.90
814;DHT22;389;48.710;9.392;2022-10-16T18:19:39;18.60;99.90
814;DHT22;389;48.710;9.392;2022-10-16T18:22:05;18.60;99.90
814;DHT22;389;48.710;9.392;2022-10-16T18:24:31;18.50;99.90
814;DHT22;389;48.710;9.392;2022-10-16T18:26:56;18.30;99.90
814;DHT22;389;48.710;9.392;2022-10-16T18:29:24;18.30;99.90
814;DHT22;389;48.710;9.392;2022-10-16T18:31:50;18.20;99.90
814;DHT22;389;48.710;9.392;2022-10-16T18:34:15;18.10;99.90
814;DHT22;389;48.710;9.392;2022-10-16T18:36:41;18.00;99.90
814;DHT22;389;48.710;9.392;2022-10-16T18:39:11;17.90;99.90
814;DHT22;389;48.710;9.392;2022-10-16T18:41:38;17.80;99.90
814;DHT22;389;48.710;9.392;2022-10-16T18:44:05;17.70;99.90
814;DHT22;389;48.710;9.392;2022-10-16T18:46:31;17.60;99.90
814;DHT22;389;48.710;9.392;2022-10-16T18:48:57;17.50;99.90
814;DHT22;389;48.710;9.392;2022-10-16T18:51:33;17.40;99.90
814;DHT22;389;48.710;9.392;2022-10-16T18:54:01;17.40;99.90
814;DHT22;389;48.710;9.392;2022-10-16T18:56:29;17.30;99.90
814;DHT22;389;48.710;9.392;2022-10-16T18:58:57;17.20;99.90
814;DHT22;389;48.710;9.392;2022-10-16T19:01:25;17.20;99.90
814;DHT22;389;48.710;9.392;2022-10-16T19:04:03;17.10;99.90
814;DHT22;389;48.710;9.392;2022-10-16T19:06:36;17.10;99.90
814;DHT22;389;48.710;9.392;2022-10-16T19:09:02;17.00;99.90
814;DHT22;389;48.710;9.392;2022-10-16T19:11:29;16.90;99.90
814;DHT22;389;48.710;9.392;2022-10-16T19:13:56;16.80;99.90
814;DHT22;389;48.710;9.392;2022-10-16T19:16:24;16.80;99.90
814;DHT22;389;48.710;9.392;2022-10-16T19:18:53;16.70;99.90
814;DHT22;389;48.710;9.392;2022-10-16T19:21:19;16.60;99.90
814;DHT22;389;48.710;9.392;2022-10-16T19:23:46;16.60;99.90
814;DHT22;389;48.710;9.392;2022-10-16T19:26:15;16.50;99.90
814;DHT22;389;48.710;9.392;2022-10-16T19:28:41;16.50;99.90
814;DHT22;389;48.710;9.392;2022-10-16T19:31:09;16.40;99.90
814;DHT22;389;48.710;9.392;2022-10-16T19:33:37;16.40;99.90
814;DHT22;389;48.710;9.392;2022-10-16T19:38:33;16.30;99.90
814;DHT22;389;48.710;9.392;2022-10-16T19:41:11;16.30;99.90
814;DHT22;389;48.710;9.392;2022-10-16T19:43:38;16.20;99.90
814;DHT22;389;48.710;9.392;2022-10-16T19:46:09;16.20;99.90
814;DHT22;389;48.710;9.392;2022-10-16T19:48:35;16.10;99.90
814;DHT22;389;48.710;9.392;2022-10-16T19:51:02;16.10;99.90
814;DHT22;389;48.710;9.392;2022-10-16T19:53:40;16.00;99.90
814;DHT22;389;48.710;9.392;2022-10-16T19:56:13;16.00;99.90
814;DHT22;389;48.710;9.392;2022-10-16T19:58:39;16.00;99.90
814;DHT22;389;48.710;9.392;2022-10-16T20:01:05;15.90;99.90